Terminal Aerodrome Forecast
Issued by NWS Omaha/Valley, NE

Home | Current Version | Previous Version | Text Only | Print | Product List | Glossary On
Versions: 1 2 3 4 5 6 7 8 9 10 11 12 13 14 15 16 17 18 19 20 21 22 23 24 25 26 27
000
FTUS43 KOAX 301120
TAFLNK
TAF
KLNK 301120Z 3012/3112 36015G21KT P6SM OVC015
     FM302000 01011G17KT P6SM OVC050
     FM302100 01010KT P6SM OVC050
     FM302200 02005KT P6SM SKC=

USA.gov is the U.S. government's official web portal to all federal, state and local government web resources and services.